createdAt,value
2023-02-09T05:11:34.780Z,101856.84
2023-02-09T05:12:39.900Z,101863.38
2023-02-09T05:14:11.525Z,101856.84
2023-02-09T05:30:32.521Z,101855.75
2023-02-09T05:31:44.079Z,101855.22
2023-02-09T05:32:50.544Z,101853.03
2023-02-09T05:34:00.373Z,101859.59
2023-02-09T05:35:08.336Z,101853.06
2023-02-09T05:45:24.661Z,101846.00
2023-02-09T05:46:36.437Z,101853.31
2023-02-09T05:47:43.184Z,101848.44
2023-02-09T05:48:53.167Z,101849.78
2023-02-09T06:09:33.890Z,101854.16
2023-02-09T06:10:42.005Z,101856.84
2023-02-09T06:11:50.857Z,101853.88
2023-02-09T06:13:01.826Z,101859.59
2023-02-09T06:14:07.294Z,101859.59
2023-02-09T06:15:21.971Z,101857.97
2023-02-09T06:16:42.998Z,101857.97
2023-02-09T06:17:51.440Z,101857.41
2023-02-09T06:18:57.536Z,101849.78
2023-02-09T06:20:10.209Z,101858.78
2023-02-09T06:21:16.522Z,101861.22
2023-02-09T06:22:22.312Z,101854.16
2023-02-09T06:23:36.339Z,101849.25
2023-02-09T06:24:49.557Z,101847.91
2023-02-09T06:25:58.148Z,101844.31
2023-02-09T06:27:07.516Z,101841.31
2023-02-09T06:28:13.574Z,101854.94
2023-02-09T06:29:20.365Z,101844.84
2023-02-09T06:30:43.015Z,101846.75
2023-02-09T06:31:49.929Z,101846.75
2023-02-09T06:32:59.232Z,101843.22
2023-02-09T06:34:06.459Z,101837.75
2023-02-09T06:35:10.228Z,101829.06
2023-02-09T06:36:16.193Z,101826.84
2023-02-09T06:37:21.470Z,101829.50
2023-02-09T06:38:27.185Z,101831.25
2023-02-09T06:59:59.399Z,101834.25
2023-02-09T07:01:18.929Z,101841.03
2023-02-09T07:02:31.912Z,101847.00
2023-02-09T07:03:44.954Z,101841.03
2023-02-09T07:06:15.447Z,101845.63
2023-02-09T07:07:50.324Z,101841.59
2023-02-09T07:09:50.178Z,101845.91
2023-02-09T07:11:27.790Z,101850.28
2023-02-09T07:12:40.637Z,101855.72
2023-02-09T07:17:09.344Z,101850.81
2023-02-09T07:19:41.541Z,101849.16
2023-02-09T07:21:03.728Z,101851.53
2023-02-09T07:22:08.305Z,101854.78
2023-02-09T07:23:18.372Z,101858.03
2023-02-09T07:24:23.566Z,101850.81
2023-02-09T07:25:27.445Z,101853.75
2023-02-09T07:26:29.979Z,101861.16
2023-02-09T07:27:36.986Z,101847.22
2023-02-09T07:28:43.997Z,101850.78
2023-02-09T07:29:50.075Z,101852.16
2023-02-09T07:30:54.709Z,101845.34
2023-02-09T07:32:00.449Z,101846.97
2023-02-09T07:33:08.956Z,101845.84
2023-02-09T07:34:27.545Z,101849.09
2023-02-09T07:35:44.471Z,101854.50
2023-02-09T07:36:50.078Z,101853.19
2023-02-09T07:37:58.012Z,101845.53
2023-02-09T07:39:05.013Z,101850.97
2023-02-09T07:40:11.397Z,101842.50
2023-02-09T07:41:22.642Z,101837.59
2023-02-09T07:42:27.576Z,101839.84
2023-02-09T07:43:38.242Z,101838.66
2023-02-09T07:44:44.074Z,101839.50
2023-02-09T07:45:47.896Z,101837.41
2023-02-09T07:46:55.044Z,101831.09
2023-02-09T07:48:01.276Z,101838.72
2023-02-09T07:49:06.711Z,101833.84
2023-02-09T07:50:13.739Z,101837.41
2023-02-09T07:51:34.024Z,101844.22
2023-02-09T07:52:38.951Z,101843.59
2023-02-09T07:53:45.479Z,101843.56
2023-02-09T07:55:05.551Z,101848.97
2023-02-09T07:56:30.754Z,101845.41
2023-02-09T07:57:34.062Z,101846.50
2023-02-09T07:58:40.684Z,101849.47
2023-02-09T07:59:47.481Z,101839.69
2023-02-09T08:00:52.485Z,101837.56
2023-02-09T08:01:56.025Z,101838.69
2023-02-09T08:03:01.323Z,101840.88
2023-02-09T08:04:08.597Z,101842.28
2023-02-09T08:05:21.607Z,101846.13
2023-02-09T08:06:45.557Z,101846.38
2023-02-09T08:07:55.670Z,101849.66
2023-02-09T08:09:05.822Z,101850.44
2023-02-09T08:10:14.120Z,101848.50
2023-02-09T08:11:41.486Z,101845.25
2023-02-09T08:13:04.419Z,101841.50
2023-02-09T08:14:18.181Z,101848.25
2023-02-09T08:15:23.809Z,101843.22
2023-02-09T08:16:32.646Z,101844.00
2023-02-09T08:17:39.402Z,101841.78
2023-02-09T08:18:53.231Z,101843.53
2023-02-09T08:20:24.221Z,101841.31
2023-02-09T08:21:34.407Z,101832.50
2023-02-09T08:22:44.550Z,101839.03
2023-02-09T08:24:19.858Z,101833.84
2023-02-09T08:25:31.530Z,101825.13
2023-02-09T08:26:38.024Z,101829.25
2023-02-09T08:27:45.399Z,101834.13
2023-02-09T08:29:07.365Z,101829.72
2023-02-09T08:30:19.275Z,101836.72
2023-02-09T08:31:26.667Z,101836.09
2023-02-09T08:32:29.490Z,101838.72
2023-02-09T08:33:35.480Z,101835.69
2023-02-09T08:34:43.916Z,101835.94
2023-02-09T08:35:55.155Z,101844.44
2023-02-09T08:36:58.150Z,101839.16
2023-02-09T08:38:03.065Z,101841.75
2023-02-09T08:39:13.652Z,101837.34
2023-02-09T08:40:28.377Z,101840.16
2023-02-09T08:41:34.700Z,101839.72
2023-02-09T08:42:39.892Z,101832.03
2023-02-09T08:43:48.922Z,101829.25
2023-02-09T08:44:53.106Z,101830.72
2023-02-09T08:46:11.946Z,101847.50
2023-02-09T08:47:21.323Z,101841.97
2023-02-09T08:48:35.605Z,101834.72
2023-02-09T08:49:43.619Z,101837.59
2023-02-09T08:50:50.427Z,101843.53
2023-02-09T08:51:56.839Z,101829.59
2023-02-09T08:53:03.184Z,101829.59
2023-02-09T08:54:08.177Z,101830.78
2023-02-09T08:55:18.949Z,101833.78
2023-02-09T08:56:23.260Z,101830.50
2023-02-09T08:57:42.789Z,101831.03
2023-02-09T08:58:49.385Z,101826.91
2023-02-09T08:59:57.777Z,101837.16
2023-02-09T09:01:02.887Z,101827.59
2023-02-09T09:02:06.506Z,101830.75
2023-02-09T09:03:14.622Z,101829.03
2023-02-09T09:04:25.935Z,101822.41
2023-02-09T09:05:34.273Z,101821.47
2023-02-09T09:06:38.004Z,101814.09
2023-02-09T09:07:45.446Z,101819.47
2023-02-09T09:08:55.365Z,101816.28
2023-02-09T09:10:00.484Z,101823.84
2023-02-09T09:11:13.889Z,101822.59
2023-02-09T09:12:22.874Z,101813.19
2023-02-09T09:13:29.022Z,101816.09
2023-02-09T09:14:33.643Z,101818.13
2023-02-09T09:15:39.746Z,101818.53
2023-02-09T09:16:44.103Z,101825.06
2023-02-09T09:17:49.475Z,101821.00
2023-02-09T09:18:53.477Z,101820.16
2023-02-09T09:20:02.686Z,101815.78
2023-02-09T09:21:06.883Z,101819.03
2023-02-09T09:22:18.131Z,101823.94
2023-02-09T09:23:24.775Z,101817.19
2023-02-09T09:24:29.133Z,101815.16
2023-02-09T09:25:41.444Z,101826.22
2023-02-09T09:26:46.031Z,101823.78
2023-02-09T09:27:53.822Z,101815.63
2023-02-09T09:28:57.178Z,101820.53
2023-02-09T09:30:10.936Z,101815.78
2023-02-09T09:31:22.961Z,101811.38
2023-02-09T09:32:32.663Z,101808.38
2023-02-09T09:33:37.303Z,101803.84
2023-02-09T09:34:45.988Z,101808.84
2023-02-09T09:35:50.761Z,101804.91
2023-02-09T09:36:57.324Z,101804.53
2023-02-09T09:38:03.118Z,101812.84
2023-02-09T09:39:08.134Z,101816.41
2023-02-09T09:40:24.748Z,101820.56
2023-02-09T09:41:36.436Z,101817.38
2023-02-09T09:42:49.088Z,101814.78
2023-02-09T09:43:56.432Z,101810.03
2023-02-09T09:45:08.241Z,101804.03
2023-02-09T09:46:21.585Z,101802.69
2023-02-09T09:47:52.961Z,101800.63
2023-02-09T09:48:59.647Z,101801.94
2023-02-09T09:50:05.775Z,101800.50
2023-02-09T09:51:32.638Z,101808.25
2023-02-09T09:52:44.332Z,101803.91
2023-02-09T09:53:54.753Z,101799.84
2023-02-09T09:54:59.327Z,101803.56
2023-02-09T09:56:09.902Z,101809.03
2023-02-09T09:57:26.440Z,101795.38
2023-02-09T09:59:00.157Z,101793.66
2023-02-09T10:00:05.499Z,101792.75
2023-02-09T10:01:20.383Z,101792.88
2023-02-09T10:02:50.561Z,101792.34
2023-02-09T10:04:04.774Z,101787.41
2023-02-09T10:05:22.980Z,101789.28
2023-02-09T10:06:30.416Z,101789.72
2023-02-09T10:07:36.249Z,101793.00
2023-02-09T10:08:45.304Z,101798.03
2023-02-09T10:10:14.138Z,101789.28
2023-02-09T10:11:31.630Z,101784.50
2023-02-09T10:12:43.637Z,101785.03
2023-02-09T10:13:56.969Z,101794.19
2023-02-09T10:15:28.491Z,101781.94
2023-02-09T10:16:35.537Z,101783.03
2023-02-09T10:17:41.112Z,101777.69
2023-02-09T10:18:52.891Z,101766.16
2023-02-09T10:20:09.718Z,101774.84
2023-02-09T10:21:18.505Z,101768.91
2023-02-09T10:22:26.456Z,101774.91
2023-02-09T10:23:37.584Z,101775.94
2023-02-09T10:25:38.642Z,101768.63
2023-02-09T10:27:05.080Z,101775.69
2023-02-09T10:28:28.143Z,101775.47
2023-02-09T10:29:34.339Z,101767.50
2023-02-09T10:30:38.372Z,101770.94
2023-02-09T10:31:50.598Z,101775.69
2023-02-09T10:33:04.776Z,101772.16
2023-02-09T10:34:23.326Z,101776.41
2023-02-09T10:35:44.389Z,101778.63
2023-02-09T10:37:18.332Z,101779.63
2023-02-09T10:38:34.235Z,101769.31
2023-02-09T10:39:40.902Z,101773.13
2023-02-09T10:40:51.315Z,101768.34
2023-02-09T10:41:58.883Z,101764.44
2023-02-09T10:43:16.437Z,101768.16
2023-02-09T10:44:29.432Z,101762.13
2023-02-09T10:45:45.669Z,101758.28
2023-02-09T10:46:51.565Z,101751.75
2023-02-09T10:48:17.475Z,101750.88
2023-02-09T10:49:36.433Z,101760.59
2023-02-09T10:50:50.838Z,101758.50
2023-02-09T10:52:18.936Z,101750.47
2023-02-09T10:53:47.083Z,101747.69
2023-02-09T10:55:00.351Z,101757.34
2023-02-09T10:56:15.535Z,101743.22
2023-02-09T10:57:42.163Z,101748.13
2023-02-09T10:59:04.274Z,101736.53
2023-02-09T11:01:47.409Z,101744.31
2023-02-09T12:57:30.222Z,101706.69
2023-02-09T12:59:07.719Z,101709.59
2023-02-09T13:00:23.298Z,101702.38
2023-02-09T13:02:13.850Z,101700.88
2023-02-09T13:03:27.368Z,101697.41
2023-02-09T13:04:40.942Z,101693.09
2023-02-09T13:05:51.352Z,101694.66
2023-02-09T13:07:03.128Z,101691.53
2023-02-09T13:08:46.379Z,101692.13
2023-02-09T13:10:10.041Z,101699.59
2023-02-09T13:11:42.046Z,101699.94
2023-02-09T13:12:59.628Z,101697.91
2023-02-09T13:14:11.940Z,101694.38
2023-02-09T13:15:21.813Z,101700.63
2023-02-09T13:16:31.367Z,101700.19
2023-02-09T13:18:07.890Z,101692.75
2023-02-09T13:19:56.677Z,101695.41
2023-02-09T13:21:20.977Z,101692.78
2023-02-09T13:23:00.847Z,101689.72
2023-02-09T13:24:27.008Z,101690.25
2023-02-09T13:25:43.928Z,101689.22
2023-02-09T13:26:59.149Z,101685.56
2023-02-09T13:28:20.609Z,101691.88
2023-02-09T13:30:35.898Z,101695.94
2023-02-09T13:32:32.425Z,101688.81
2023-02-09T13:33:59.909Z,101690.91
2023-02-09T13:35:29.434Z,101688.78
2023-02-09T13:36:57.887Z,101677.88
2023-02-09T13:38:24.177Z,101678.66
2023-02-09T13:39:42.176Z,101681.03
2023-02-09T13:40:59.698Z,101681.63
2023-02-09T13:42:28.961Z,101680.16
2023-02-09T13:43:40.579Z,101675.88
2023-02-09T13:45:18.427Z,101680.34
2023-02-09T13:46:52.222Z,101680.59
2023-02-09T13:55:26.965Z,101677.28
2023-02-09T13:56:33.066Z,101684.38
2023-02-09T13:57:43.647Z,101680.84
2023-02-09T13:58:48.706Z,101672.41
2023-02-09T13:59:51.654Z,101677.38
2023-02-09T14:01:04.852Z,101668.34
2023-02-09T14:02:21.651Z,101673.56
2023-02-09T14:03:28.916Z,101672.66
2023-02-09T14:04:37.268Z,101667.25
2023-02-09T14:05:50.434Z,101671.31
2023-02-09T14:07:01.696Z,101670.69
2023-02-09T14:08:18.193Z,101668.09
2023-02-09T14:10:12.218Z,101676.75
2023-02-09T14:11:42.937Z,101671.56
2023-02-09T14:13:03.035Z,101667.66
2023-02-09T14:14:22.647Z,101672.53
2023-02-09T14:16:06.264Z,101667.69
2023-02-09T14:17:25.304Z,101674.69
2023-02-09T14:18:55.570Z,101661.63
2023-02-09T14:20:07.234Z,101653.03
2023-02-09T14:21:24.486Z,101663.34
2023-02-09T14:22:37.935Z,101660.63
2023-02-09T14:23:52.679Z,101665.00
2023-02-09T14:24:55.291Z,101664.44
2023-02-09T14:26:19.017Z,101653.47
2023-02-09T14:27:35.341Z,101657.00
2023-02-09T14:28:39.990Z,101655.06
2023-02-09T14:29:48.126Z,101665.38
2023-02-09T14:30:52.247Z,101661.28
2023-02-09T14:32:31.915Z,101653.78
2023-02-09T14:33:51.295Z,101665.38
2023-02-09T16:42:12.843Z,101591.38
2023-02-09T16:43:17.164Z,101584.13
2023-02-09T16:44:25.969Z,101586.22
2023-02-09T16:45:35.218Z,101583.75
2023-02-09T16:46:38.568Z,101587.09
2023-02-09T16:47:45.896Z,101581.88
2023-02-09T16:48:51.104Z,101582.13
2023-02-09T16:50:09.897Z,101585.47
2023-02-09T16:51:15.119Z,101578.38
2023-02-09T16:52:21.757Z,101587.09
2023-02-09T16:53:34.946Z,101584.41
2023-02-09T16:54:43.373Z,101584.31
2023-02-09T16:55:48.927Z,101582.13
2023-02-09T16:56:54.544Z,101573.97
2023-02-09T16:57:58.830Z,101580.09
2023-02-09T16:59:00.987Z,101578.38
2023-02-09T17:00:04.113Z,101574.78
2023-02-09T17:01:22.707Z,101578.97
2023-02-09T17:02:40.963Z,101576.72
2023-02-09T17:04:08.851Z,101573.63
2023-02-09T17:05:43.219Z,101568.59
2023-02-09T17:06:55.568Z,101564.22
2023-02-09T17:08:22.676Z,101572.72
2023-02-09T17:09:27.060Z,101563.16
2023-02-09T17:10:33.210Z,101566.41
2023-02-09T17:11:42.051Z,101567.81
2023-02-09T17:12:45.995Z,101562.84
2023-02-09T17:13:50.144Z,101570.59
2023-02-09T17:14:57.646Z,101561.75
2023-02-09T17:16:11.705Z,101572.28
2023-02-09T17:17:20.553Z,101568.47
2023-02-09T17:18:27.357Z,101564.41
2023-02-09T17:19:42.138Z,101568.38
2023-02-09T17:21:04.113Z,101564.25
2023-02-09T17:22:14.848Z,101563.38
2023-02-09T17:23:21.354Z,101565.53
2023-02-09T17:24:27.013Z,101568.66
2023-02-09T17:25:30.240Z,101562.41
2023-02-09T17:26:38.240Z,101560.47
2023-02-09T17:27:52.473Z,101557.75
2023-02-09T17:29:05.631Z,101554.09
2023-02-09T17:30:17.276Z,101558.34
2023-02-09T17:31:50.828Z,101551.25
2023-02-09T17:33:11.651Z,101552.34
2023-02-09T17:34:21.853Z,101544.47
2023-02-09T17:35:57.924Z,101547.09
2023-02-09T17:36:54.487Z,101555.97
2023-02-09T17:41:56.830Z,101541.56
2023-02-09T18:14:13.244Z,101517.03
2023-02-09T18:15:37.212Z,101511.84
2023-02-09T18:16:41.508Z,101512.88
2023-02-09T18:17:45.055Z,101516.63
2023-02-09T18:18:56.639Z,101518.22
2023-02-09T18:20:03.501Z,101514.41
2023-02-09T18:21:17.142Z,101520.16
2023-02-09T18:22:28.040Z,101512.34
2023-02-09T18:25:17.524Z,101500.38
2023-02-09T18:26:25.156Z,101501.91
2023-02-09T18:27:38.229Z,101500.84
2023-02-09T18:28:46.688Z,101502.56
2023-02-09T18:29:50.947Z,101500.91
2023-02-09T18:31:00.442Z,101502.72
2023-02-09T18:32:07.457Z,101502.47
2023-02-09T18:33:15.442Z,101501.88
2023-02-09T18:34:19.016Z,101500.84
2023-02-09T18:35:38.666Z,101493.34
2023-02-09T18:36:45.773Z,101497.78
2023-02-09T18:37:51.854Z,101491.19
2023-02-09T18:38:56.840Z,101496.59
2023-02-09T18:40:06.276Z,101490.66
2023-02-09T18:41:16.390Z,101494.16
2023-02-09T18:42:24.528Z,101488.41
2023-02-09T18:43:29.325Z,101491.03
2023-02-09T18:44:37.976Z,101482.72
2023-02-09T18:45:41.681Z,101490.03
2023-02-09T18:46:53.741Z,101497.13
2023-02-09T18:47:58.871Z,101483.50
2023-02-09T18:49:04.129Z,101490.03
2023-02-09T18:50:20.372Z,101485.69
2023-02-09T18:51:33.196Z,101480.16
2023-02-09T18:52:36.606Z,101485.38
2023-02-09T18:53:40.355Z,101474.22
2023-02-09T18:54:47.711Z,101467.59
2023-02-09T18:55:55.253Z,101474.34
2023-02-09T18:57:03.288Z,101469.47
2023-02-09T18:58:11.177Z,101467.72
2023-02-09T18:59:18.365Z,101473.13
2023-02-09T19:00:25.230Z,101466.06
2023-02-09T19:01:53.772Z,101470.41
2023-02-09T19:02:59.771Z,101468.13
2023-02-09T19:04:05.491Z,101464.50
2023-02-09T19:05:15.132Z,101468.72
2023-02-09T19:06:20.977Z,101466.72
2023-02-09T19:07:25.550Z,101457.25
2023-02-09T19:08:30.643Z,101460.69
2023-02-09T19:09:41.907Z,101461.13
2023-02-09T19:10:51.772Z,101461.47
2023-02-09T19:11:59.220Z,101462.34
2023-02-09T19:13:05.028Z,101462.50
2023-02-09T19:14:28.238Z,101463.94
2023-02-09T19:15:45.959Z,101472.66
2023-02-09T19:16:50.912Z,101464.38
2023-02-09T19:18:01.938Z,101466.13
2023-02-09T19:19:11.443Z,101461.06
2023-02-09T19:20:23.781Z,101451.50
2023-02-09T19:21:29.708Z,101460.72
2023-02-09T19:22:38.016Z,101457.94
2023-02-09T19:23:42.021Z,101450.44
2023-02-09T19:24:53.193Z,101453.78
2023-02-09T19:26:11.738Z,101446.06
2023-02-09T19:27:21.810Z,101442.91
2023-02-09T19:28:32.298Z,101444.75
2023-02-09T19:29:48.516Z,101440.28
2023-02-09T19:30:53.958Z,101440.03
2023-02-09T19:32:03.642Z,101441.66
2023-02-09T19:33:24.179Z,101437.25
2023-02-09T19:34:38.524Z,101441.06
2023-02-09T19:35:44.930Z,101441.09
2023-02-09T19:36:52.226Z,101437.59
2023-02-09T19:38:12.226Z,101443.81
2023-02-09T19:43:40.943Z,101428.94
2023-02-09T19:44:44.199Z,101437.03
2023-02-09T19:45:58.254Z,101422.63
2023-02-09T19:47:04.994Z,101425.31
2023-02-09T19:48:13.234Z,101417.88
2023-02-09T19:49:23.123Z,101418.47
2023-02-09T19:50:31.747Z,101416.78
2023-02-09T19:51:40.747Z,101423.78
2023-02-09T19:52:56.050Z,101419.97
2023-02-09T19:54:05.302Z,101412.41
2023-02-09T19:55:16.265Z,101415.63
2023-02-09T19:56:22.180Z,101419.56
2023-02-09T19:57:26.451Z,101420.47
2023-02-09T19:58:34.894Z,101419.38
2023-02-09T19:59:44.060Z,101409.22
2023-02-09T20:00:48.914Z,101410.78
2023-02-09T20:01:52.968Z,101408.69
2023-02-09T20:02:58.782Z,101409.06
2023-02-09T20:04:05.744Z,101398.66
2023-02-09T20:05:10.767Z,101396.91
2023-02-09T20:08:35.408Z,101393.38
2023-02-09T20:09:44.681Z,101396.53
2023-02-09T20:10:51.890Z,101393.28
2023-02-09T20:11:57.747Z,101394.34
2023-02-09T20:13:01.127Z,101394.91
2023-02-09T20:14:09.433Z,101388.56
2023-02-09T20:15:13.376Z,101395.09
2023-02-09T20:16:25.608Z,101387.47
2023-02-09T20:17:34.006Z,101382.78
2023-02-09T20:18:41.600Z,101377.44
2023-02-09T20:19:45.171Z,101383.84
2023-02-09T20:20:49.876Z,101383.91
2023-02-09T20:21:54.640Z,101386.69
2023-02-09T20:23:06.061Z,101380.88
2023-02-09T20:24:16.025Z,101373.34
2023-02-09T20:25:24.653Z,101377.03
2023-02-09T20:26:34.202Z,101374.75
2023-02-09T20:27:42.413Z,101374.75
2023-02-09T20:28:57.353Z,101375.84
2023-02-09T20:30:09.247Z,101378.94
2023-02-09T20:31:20.278Z,101373.47
2023-02-09T20:32:23.448Z,101377.47
2023-02-09T20:33:32.607Z,101369.88
2023-02-09T20:36:16.756Z,101378.09
2023-02-09T20:37:23.257Z,101381.00
2023-02-09T20:39:55.240Z,101376.38
2023-02-09T20:41:18.858Z,101373.91
2023-02-09T20:42:45.250Z,101379.78
2023-02-09T20:44:09.940Z,101365.72
2023-02-09T20:45:36.017Z,101362.81
2023-02-09T20:46:56.516Z,101372.69
2023-02-09T20:48:08.957Z,101375.06
2023-02-09T20:49:16.937Z,101370.47
2023-02-09T20:50:22.359Z,101374.28
2023-02-09T20:51:28.679Z,101369.72
2023-02-09T20:52:36.507Z,101374.53
2023-02-09T20:53:41.100Z,101376.16
2023-02-09T20:54:45.313Z,101364.66
2023-02-09T20:55:52.693Z,101369.47
2023-02-09T20:56:57.284Z,101376.66
2023-02-09T20:58:05.548Z,101364.03
2023-02-09T20:59:10.521Z,101375.97
2023-02-09T21:00:14.681Z,101370.56
2023-02-09T21:01:19.031Z,101375.97
2023-02-09T21:02:33.233Z,101373.22
2023-02-09T21:03:39.275Z,101377.34
2023-02-09T21:04:43.993Z,101374.94
2023-02-09T21:05:53.997Z,101366.63
2023-02-09T21:06:58.582Z,101363.00
2023-02-09T21:08:08.696Z,101361.78
2023-02-09T21:09:38.201Z,101358.19
2023-02-09T21:10:42.644Z,101363.41
2023-02-09T21:12:06.453Z,101354.00
2023-02-09T21:13:18.873Z,101350.19
2023-02-09T21:14:41.769Z,101356.47
2023-02-09T21:15:47.297Z,101350.91
2023-02-09T21:16:55.865Z,101350.31
2023-02-09T21:17:59.447Z,101344.31
2023-02-09T21:19:03.768Z,101349.41
2023-02-09T21:20:08.640Z,101349.94
2023-02-09T21:21:18.155Z,101345.84
2023-02-09T21:22:22.171Z,101344.50
2023-02-09T21:23:27.817Z,101339.28
2023-02-09T21:24:43.329Z,101343.41
2023-02-09T21:25:49.477Z,101341.13
2023-02-09T21:26:56.694Z,101337.72
2023-02-09T21:28:04.218Z,101337.28
2023-02-09T21:29:07.911Z,101334.53
2023-02-09T21:30:17.133Z,101335.66
2023-02-09T21:31:28.959Z,101332.81
2023-02-09T21:32:36.993Z,101331.31
2023-02-09T21:33:40.340Z,101333.97
2023-02-09T21:34:46.598Z,101331.38
2023-02-09T21:35:55.958Z,101328.78
2023-02-09T21:37:09.239Z,101325.81
2023-02-09T21:38:25.840Z,101314.41
2023-02-09T21:39:30.149Z,101319.34
2023-02-09T21:40:38.331Z,101318.66
2023-02-09T21:42:04.653Z,101319.81
2023-02-09T21:43:16.501Z,101307.28
2023-02-09T21:44:22.433Z,101305.09
2023-02-09T21:45:46.267Z,101314.06
2023-02-09T21:47:36.666Z,101306.63
2023-02-09T21:48:50.436Z,101310.91
2023-02-09T21:50:09.749Z,101306.72
2023-02-09T21:51:14.137Z,101304.91
2023-02-09T21:52:38.907Z,101308.88
2023-02-09T21:53:46.432Z,101303.75
2023-02-09T21:54:57.839Z,101301.22
2023-02-09T21:56:19.139Z,101305.66
2023-02-09T21:57:36.201Z,101307.97
2023-02-09T21:58:49.330Z,101306.31
2023-02-09T22:00:18.172Z,101294.88
2023-02-09T22:01:29.915Z,101303.41
2023-02-09T22:02:35.195Z,101291.53
2023-02-09T22:04:13.251Z,101293.06
2023-02-09T22:05:18.166Z,101297.41
2023-02-09T22:07:51.260Z,101287.59
2023-02-09T22:09:00.234Z,101289.25
2023-02-09T22:10:09.973Z,101283.19
2023-02-09T22:11:17.740Z,101280.91
2023-02-09T22:12:43.640Z,101279.34
2023-02-09T22:13:52.123Z,101268.25
2023-02-09T22:14:55.247Z,101274.78
2023-02-09T22:15:59.043Z,101273.09
2023-02-09T22:17:02.393Z,101272.50
2023-02-09T22:18:05.207Z,101267.31
2023-02-09T22:19:15.769Z,101270.69
2023-02-09T22:20:25.585Z,101273.81
2023-02-09T22:21:31.146Z,101263.84
2023-02-09T22:22:35.157Z,101266.38
2023-02-09T22:23:38.217Z,101265.06
2023-02-09T22:24:40.942Z,101265.84
2023-02-09T22:25:44.144Z,101274.72
2023-02-09T22:26:48.689Z,101267.78
2023-02-09T22:27:51.969Z,101260.22
2023-02-09T22:28:59.645Z,101263.44
2023-02-09T22:30:02.619Z,101262.47
2023-02-09T22:31:13.828Z,101254.19
2023-02-09T22:32:18.806Z,101257.91
2023-02-09T22:33:31.790Z,101256.22
2023-02-09T22:34:34.476Z,101257.63
2023-02-09T22:35:41.782Z,101255.25
2023-02-09T22:36:45.084Z,101250.97
2023-02-09T22:37:47.677Z,101254.09
2023-02-09T22:38:51.148Z,101248.31
2023-02-09T22:39:55.018Z,101252.41
2023-02-09T22:41:05.140Z,101248.41
2023-02-09T22:42:08.473Z,101242.75
2023-02-09T22:43:12.083Z,101237.28
2023-02-09T22:44:18.504Z,101241.59
2023-02-09T22:45:21.785Z,101234.66
2023-02-09T22:46:29.644Z,101227.03
2023-02-09T22:47:33.187Z,101231.75
2023-02-09T22:48:38.331Z,101232.38
2023-02-09T22:49:41.939Z,101225.31
2023-02-09T22:50:46.508Z,101225.34
2023-02-09T22:51:51.424Z,101219.88
2023-02-09T22:52:57.375Z,101224.84
2023-02-09T22:54:00.675Z,101221.03
2023-02-09T22:55:04.562Z,101227.97
2023-02-09T22:56:08.667Z,101225.41
2023-02-09T22:57:16.621Z,101221.91
2023-02-09T22:58:19.314Z,101226.81
2023-02-09T22:59:23.661Z,101220.84
2023-02-09T23:00:27.317Z,101220.91
2023-02-09T23:01:31.128Z,101220.97
2023-02-09T23:02:34.271Z,101211.34
2023-02-09T23:03:41.166Z,101212.38
2023-02-09T23:04:45.232Z,101217.81
2023-02-09T23:05:52.808Z,101208.38
2023-02-09T23:07:02.771Z,101208.91
2023-02-09T23:08:05.378Z,101209.91
2023-02-09T23:09:08.989Z,101211.09
2023-02-09T23:10:11.486Z,101209.00
2023-02-09T23:11:17.542Z,101203.56
2023-02-09T23:12:21.010Z,101195.47
2023-02-09T23:13:24.666Z,101202.19
2023-02-09T23:14:27.811Z,101193.31
2023-02-09T23:15:34.992Z,101202.44
2023-02-09T23:16:39.833Z,101200.97
2023-02-09T23:17:43.742Z,101201.00
2023-02-09T23:18:55.207Z,101190.66
2023-02-09T23:19:58.076Z,101193.47
2023-02-09T23:21:05.502Z,101190.00
2023-02-09T23:22:10.066Z,101191.09
2023-02-09T23:23:17.032Z,101184.81
2023-02-09T23:24:24.248Z,101182.94
2023-02-09T23:25:29.281Z,101181.78
2023-02-09T23:26:31.736Z,101186.66
2023-02-09T23:27:37.178Z,101175.63
2023-02-09T23:28:40.328Z,101174.47
2023-02-09T23:29:46.234Z,101181.44
2023-02-09T23:30:51.388Z,101170.97
2023-02-09T23:32:11.074Z,101183.97
2023-02-09T23:33:29.077Z,101167.34
2023-02-09T23:34:38.362Z,101166.88
2023-02-09T23:35:42.823Z,101168.97
2023-02-09T23:36:45.284Z,101157.63
2023-02-09T23:37:47.910Z,101157.13
2023-02-09T23:38:59.611Z,101151.44
2023-02-09T23:40:04.925Z,101151.00
2023-02-09T23:41:13.931Z,101152.38
2023-02-09T23:42:19.429Z,101158.09
2023-02-09T23:43:25.956Z,101160.94
2023-02-09T23:44:28.910Z,101152.84
2023-02-09T23:45:32.775Z,101161.81
2023-02-09T23:46:35.351Z,101152.56
2023-02-09T23:47:39.248Z,101149.22
2023-02-09T23:48:41.694Z,101156.78
2023-02-09T23:49:44.294Z,101151.75
2023-02-09T23:50:47.789Z,101149.00
2023-02-09T23:51:53.449Z,101156.53
2023-02-09T23:52:56.486Z,101143.88
2023-02-09T23:54:04.290Z,101144.41
2023-02-09T23:55:08.190Z,101130.81
2023-02-09T23:56:18.201Z,101137.50
2023-02-09T23:57:24.860Z,101135.00
2023-02-09T23:58:28.998Z,101134.09
2023-02-09T23:59:35.401Z,101133.72
